createdAt,value
2019-05-30T00:01:06.371Z,8.38
2019-05-30T00:03:33.585Z,8.23
2019-05-30T00:06:00.862Z,8.08
2019-05-30T00:08:28.876Z,7.94
2019-05-30T00:10:56.529Z,7.79
2019-05-30T00:13:23.750Z,7.67
2019-05-30T00:15:50.782Z,7.58
2019-05-30T00:18:17.828Z,7.50
2019-05-30T00:20:46.732Z,7.42
2019-05-30T00:23:14.087Z,7.36
2019-05-30T00:25:41.124Z,7.35
2019-05-30T00:28:08.345Z,7.30
2019-05-30T00:30:35.746Z,7.25
2019-05-30T00:33:03.600Z,7.19
2019-05-30T00:35:31.772Z,7.16
2019-05-30T00:37:59.723Z,7.14
2019-05-30T00:40:27.230Z,7.08
2019-05-30T00:42:55.804Z,7.07
2019-05-30T00:45:23.373Z,7.05
2019-05-30T00:47:50.430Z,7.05
2019-05-30T00:50:17.469Z,7.02
2019-05-30T00:52:44.505Z,7.05
2019-05-30T00:55:11.874Z,7.10
2019-05-30T00:57:39.215Z,7.20
2019-05-30T01:00:07.168Z,7.31
2019-05-30T01:02:34.280Z,7.41
2019-05-30T01:05:03.372Z,7.45
2019-05-30T01:07:30.986Z,7.29
2019-05-30T01:09:59.105Z,7.08
2019-05-30T01:12:26.517Z,6.96
2019-05-30T01:14:53.876Z,6.85
2019-05-30T01:17:21.234Z,6.80
2019-05-30T01:19:48.277Z,6.81
2019-05-30T01:22:15.574Z,6.83
2019-05-30T01:24:42.623Z,6.87
2019-05-30T01:27:09.657Z,6.88
2019-05-30T01:29:36.982Z,6.87
2019-05-30T01:32:04.017Z,6.84
2019-05-30T01:34:31.075Z,6.82
2019-05-30T01:36:59.805Z,6.87
2019-05-30T01:39:26.979Z,6.93
2019-05-30T01:41:53.994Z,6.93
2019-05-30T01:44:21.269Z,6.97
2019-05-30T01:46:48.305Z,7.11
2019-05-30T01:49:15.358Z,7.18
2019-05-30T01:51:42.393Z,7.26
2019-05-30T01:54:09.431Z,7.34
2019-05-30T01:56:36.758Z,7.39
2019-05-30T01:59:04.795Z,7.40
2019-05-30T02:01:32.224Z,7.29
2019-05-30T02:03:59.438Z,7.17
2019-05-30T02:06:26.490Z,7.09
2019-05-30T02:08:53.858Z,7.03
2019-05-30T02:11:21.199Z,6.89
2019-05-30T02:13:48.240Z,6.75
2019-05-30T02:16:15.293Z,6.63
2019-05-30T02:18:42.589Z,6.54
2019-05-30T02:21:10.079Z,6.49
2019-05-30T02:23:37.466Z,6.46
2019-05-30T02:26:06.199Z,6.45
2019-05-30T02:28:33.710Z,6.47
2019-05-30T02:31:01.074Z,6.48
2019-05-30T02:33:29.503Z,6.40
2019-05-30T02:35:56.550Z,6.33
2019-05-30T02:38:23.953Z,6.28
2019-05-30T02:40:51.008Z,6.26
2019-05-30T02:43:18.354Z,6.24
2019-05-30T02:45:45.402Z,6.19
2019-05-30T02:48:12.756Z,6.11
2019-05-30T02:50:39.874Z,6.03
2019-05-30T02:53:08.414Z,5.96
2019-05-30T02:55:37.379Z,5.96
2019-05-30T02:58:06.216Z,5.96
2019-05-30T03:00:33.833Z,5.96
2019-05-30T03:03:01.853Z,5.98
2019-05-30T03:05:29.979Z,6.02
2019-05-30T03:07:57.013Z,6.01
2019-05-30T03:10:24.144Z,6.07
2019-05-30T03:12:51.183Z,6.09
2019-05-30T03:15:18.574Z,6.19
2019-05-30T03:17:45.651Z,6.19
2019-05-30T03:20:21.943Z,6.15
2019-05-30T03:22:41.683Z,6.09
2019-05-30T03:25:11.107Z,6.09
2019-05-30T03:27:37.533Z,6.10
2019-05-30T03:30:09.505Z,6.16
2019-05-30T03:35:06.201Z,6.70
2019-05-30T03:37:32.780Z,7.22
2019-05-30T03:40:00.159Z,8.04
2019-05-30T03:42:27.573Z,8.78
2019-05-30T03:44:54.927Z,9.49
2019-05-30T03:47:21.987Z,10.15
2019-05-30T03:49:49.036Z,10.80
2019-05-30T03:52:17.245Z,11.39
2019-05-30T03:54:44.873Z,12.03
2019-05-30T03:57:13.980Z,12.67
2019-05-30T03:59:41.028Z,13.31
2019-05-30T04:02:09.515Z,13.95
2019-05-30T04:04:37.458Z,14.57
2019-05-30T04:07:06.702Z,15.27
2019-05-30T04:09:33.822Z,15.74
2019-05-30T04:12:01.162Z,16.49
2019-05-30T04:14:28.204Z,17.09
2019-05-30T04:16:55.569Z,17.57
2019-05-30T04:19:22.672Z,18.08
2019-05-30T04:21:50.072Z,18.54
2019-05-30T04:24:19.617Z,19.01
2019-05-30T04:26:47.137Z,19.18
2019-05-30T04:29:15.036Z,19.28
2019-05-30T04:31:43.244Z,19.83
2019-05-30T04:34:12.444Z,20.24
2019-05-30T04:36:40.038Z,20.87
2019-05-30T04:39:08.629Z,21.48
2019-05-30T04:41:36.094Z,21.84
2019-05-30T04:44:03.445Z,22.56
2019-05-30T04:46:30.483Z,23.28
2019-05-30T04:48:57.534Z,24.18
2019-05-30T04:51:24.813Z,25.04
2019-05-30T04:53:51.866Z,25.45
2019-05-30T04:56:21.226Z,26.08
2019-05-30T04:58:47.928Z,26.53
2019-05-30T05:01:15.582Z,27.20
2019-05-30T05:03:46.593Z,27.81
2019-05-30T05:06:13.817Z,28.06
2019-05-30T05:08:41.282Z,28.34
2019-05-30T05:11:12.277Z,28.56
2019-05-30T05:13:37.331Z,28.80
2019-05-30T05:16:22.067Z,28.84
2019-05-30T05:18:33.450Z,29.35
2019-05-30T05:21:00.479Z,29.77
2019-05-30T05:23:27.528Z,30.03
2019-05-30T05:26:01.043Z,30.07
2019-05-30T05:28:24.065Z,30.27
2019-05-30T05:30:51.474Z,30.28
2019-05-30T05:33:18.838Z,30.31
2019-05-30T05:35:46.180Z,30.83
2019-05-30T05:38:13.248Z,30.93
2019-05-30T05:40:40.591Z,31.11
2019-05-30T05:43:07.645Z,31.27
2019-05-30T05:45:34.994Z,31.03
2019-05-30T05:48:02.041Z,30.90
2019-05-30T05:50:29.082Z,30.84
2019-05-30T05:52:56.380Z,30.81
2019-05-30T05:55:23.416Z,30.87
2019-05-30T05:57:50.717Z,30.80
2019-05-30T06:00:18.898Z,30.93
2019-05-30T06:02:46.083Z,30.03
2019-05-30T06:05:13.121Z,29.35
2019-05-30T06:07:40.468Z,28.91
2019-05-30T06:10:07.520Z,28.17
2019-05-30T06:12:34.874Z,28.00
2019-05-30T06:15:02.672Z,27.37
2019-05-30T06:17:29.869Z,27.94
2019-05-30T06:19:56.918Z,27.71
2019-05-30T06:22:23.962Z,26.80
2019-05-30T06:24:51.361Z,26.83
2019-05-30T06:27:20.055Z,27.92
2019-05-30T06:29:47.209Z,28.08
2019-05-30T06:32:14.550Z,28.13
2019-05-30T06:34:41.677Z,28.03
2019-05-30T06:37:11.900Z,28.01
2019-05-30T06:39:37.462Z,27.77
2019-05-30T06:42:04.727Z,28.03
2019-05-30T06:44:32.140Z,28.09
2019-05-30T06:46:59.481Z,27.38
2019-05-30T06:49:26.945Z,27.25
2019-05-30T06:51:54.052Z,27.29
2019-05-30T06:54:22.059Z,27.10
2019-05-30T06:56:50.182Z,27.21
2019-05-30T06:59:17.239Z,26.77
2019-05-30T07:01:44.535Z,26.61
2019-05-30T07:04:12.339Z,26.45
2019-05-30T07:06:39.837Z,26.55
2019-05-30T07:09:07.416Z,27.08
2019-05-30T07:11:34.773Z,27.54
2019-05-30T07:14:01.826Z,27.79
2019-05-30T07:16:29.514Z,27.89
2019-05-30T07:18:57.722Z,27.70
2019-05-30T07:21:25.528Z,26.93
2019-05-30T07:23:52.652Z,26.49
2019-05-30T07:26:19.689Z,26.29
2019-05-30T07:28:47.097Z,26.20
2019-05-30T07:31:14.374Z,25.95
2019-05-30T07:33:41.686Z,25.81
2019-05-30T07:36:09.041Z,25.44
2019-05-30T07:38:36.073Z,25.36
2019-05-30T07:41:03.126Z,25.21
2019-05-30T07:43:31.571Z,25.07
2019-05-30T07:45:59.176Z,25.06
2019-05-30T07:51:29.057Z,25.64
2019-05-30T07:53:56.161Z,25.33
2019-05-30T07:56:23.519Z,24.55
2019-05-30T07:58:50.548Z,24.15
2019-05-30T08:01:17.920Z,24.01
2019-05-30T08:03:44.970Z,24.32
2019-05-30T08:06:12.342Z,24.83
2019-05-30T08:08:39.702Z,24.63
2019-05-30T08:11:09.952Z,24.31
2019-05-30T08:13:35.738Z,24.22
2019-05-30T08:16:03.110Z,24.47
2019-05-30T08:18:30.137Z,24.69
2019-05-30T08:20:57.482Z,24.65
2019-05-30T08:23:24.863Z,24.24
2019-05-30T08:25:51.901Z,24.31
2019-05-30T08:28:18.999Z,24.47
2019-05-30T08:30:46.402Z,24.60
2019-05-30T08:33:13.438Z,24.65
2019-05-30T08:35:49.213Z,24.46
2019-05-30T08:38:09.531Z,24.41
2019-05-30T08:40:37.718Z,23.50
2019-05-30T08:43:06.250Z,22.59
2019-05-30T08:45:33.735Z,22.04
2019-05-30T08:48:00.802Z,21.44
2019-05-30T08:50:28.201Z,21.58
2019-05-30T08:52:55.247Z,21.33
2019-05-30T08:55:22.297Z,20.71
2019-05-30T08:57:49.341Z,19.93
2019-05-30T09:00:16.389Z,19.97
2019-05-30T09:02:43.424Z,21.02
2019-05-30T09:05:10.823Z,22.13
2019-05-30T09:07:38.254Z,22.62
2019-05-30T09:10:05.464Z,21.93
2019-05-30T09:12:32.505Z,21.24
2019-05-30T09:14:59.540Z,21.44
2019-05-30T09:17:27.978Z,22.15
2019-05-30T09:19:55.010Z,22.84
2019-05-30T09:22:22.502Z,22.69
2019-05-30T09:24:49.837Z,23.08
2019-05-30T09:27:16.987Z,23.55
2019-05-30T09:29:44.754Z,23.49
2019-05-30T09:32:12.209Z,23.42
2019-05-30T09:34:40.257Z,23.86
2019-05-30T09:37:08.270Z,24.02
2019-05-30T09:39:35.614Z,23.63
2019-05-30T09:42:02.666Z,23.89
2019-05-30T09:44:30.009Z,24.08
2019-05-30T09:46:57.389Z,24.29
2019-05-30T09:49:24.720Z,24.79
2019-05-30T09:51:52.083Z,24.42
2019-05-30T09:54:19.130Z,24.06
2019-05-30T09:56:46.637Z,24.09
2019-05-30T09:59:14.037Z,24.28
2019-05-30T10:01:42.603Z,24.66
2019-05-30T10:04:10.390Z,25.05
2019-05-30T10:06:37.436Z,25.59
2019-05-30T10:09:04.788Z,26.02
2019-05-30T10:11:32.964Z,26.50
2019-05-30T10:14:00.322Z,26.67
2019-05-30T10:16:27.369Z,27.15
2019-05-30T10:18:54.724Z,27.76
2019-05-30T10:21:21.771Z,27.73
2019-05-30T10:23:49.449Z,27.30
2019-05-30T10:26:16.725Z,26.44
2019-05-30T10:28:44.974Z,25.41
2019-05-30T10:31:12.491Z,24.96
2019-05-30T10:33:39.540Z,25.58
2019-05-30T10:36:06.926Z,26.58
2019-05-30T10:38:33.984Z,27.06
2019-05-30T10:41:01.021Z,26.10
2019-05-30T10:43:29.401Z,26.75
2019-05-30T10:45:57.497Z,27.57
2019-05-30T10:48:24.594Z,28.44
2019-05-30T10:50:52.297Z,29.23
2019-05-30T10:53:19.756Z,29.58
2019-05-30T10:55:48.090Z,29.71
2019-05-30T10:58:15.596Z,29.88
2019-05-30T11:00:42.953Z,30.16
2019-05-30T11:03:10.003Z,30.41
2019-05-30T11:05:37.343Z,30.49
2019-05-30T11:08:06.357Z,30.60
2019-05-30T11:10:33.635Z,30.11
2019-05-30T11:13:05.840Z,30.45
2019-05-30T11:15:29.418Z,30.57
2019-05-30T11:17:57.730Z,31.30
2019-05-30T11:20:24.847Z,31.30
2019-05-30T11:22:53.057Z,31.51
2019-05-30T11:25:20.750Z,31.72
2019-05-30T11:27:48.578Z,32.00
2019-05-30T11:30:16.029Z,31.95
2019-05-30T11:32:43.187Z,32.08
2019-05-30T11:35:10.439Z,32.01
2019-05-30T11:37:37.765Z,32.32
2019-05-30T11:40:04.821Z,32.86
2019-05-30T11:42:31.852Z,33.57
2019-05-30T11:44:59.945Z,33.02
2019-05-30T11:47:27.036Z,33.07
2019-05-30T11:49:54.088Z,33.59
2019-05-30T11:52:21.120Z,34.07
2019-05-30T11:54:49.784Z,34.44
2019-05-30T11:57:16.863Z,34.79
2019-05-30T11:59:44.395Z,34.89
2019-05-30T12:02:11.477Z,34.48
2019-05-30T12:04:38.792Z,34.85
2019-05-30T12:07:05.829Z,35.35
2019-05-30T12:09:33.187Z,35.48
2019-05-30T12:12:01.440Z,35.43
2019-05-30T12:14:28.899Z,35.25
2019-05-30T12:16:55.941Z,34.86
2019-05-30T12:19:22.991Z,35.00
2019-05-30T12:21:51.475Z,34.94
2019-05-30T12:24:19.060Z,34.70
2019-05-30T12:26:46.085Z,34.58
2019-05-30T12:29:13.133Z,34.56
2019-05-30T12:31:40.416Z,34.89
2019-05-30T12:34:07.468Z,35.36
2019-05-30T12:36:34.514Z,35.44
2019-05-30T12:39:02.652Z,35.56
2019-05-30T12:41:29.877Z,35.09
2019-05-30T12:43:57.015Z,34.20
2019-05-30T12:46:24.036Z,32.92
2019-05-30T12:48:51.173Z,31.82
2019-05-30T12:51:18.610Z,30.75
2019-05-30T12:53:45.659Z,30.15
2019-05-30T12:56:12.699Z,29.44
2019-05-30T12:58:40.083Z,28.84
2019-05-30T13:01:07.133Z,28.09
2019-05-30T13:03:34.178Z,27.42
2019-05-30T13:06:03.427Z,26.64
2019-05-30T13:08:31.561Z,25.36
2019-05-30T13:10:59.442Z,23.99
2019-05-30T13:13:26.526Z,23.33
2019-05-30T13:15:54.542Z,22.83
2019-05-30T13:18:21.670Z,22.68
2019-05-30T13:20:49.064Z,22.69
2019-05-30T13:23:17.153Z,22.80
2019-05-30T13:25:44.465Z,22.83
2019-05-30T13:28:11.505Z,22.75
2019-05-30T13:30:38.616Z,22.64
2019-05-30T13:33:07.041Z,22.73
2019-05-30T13:35:34.092Z,22.77
2019-05-30T13:38:01.442Z,22.64
2019-05-30T13:40:28.552Z,22.52
2019-05-30T13:42:55.607Z,22.39
2019-05-30T13:45:22.661Z,22.25
2019-05-30T13:47:49.766Z,22.00
2019-05-30T13:50:16.829Z,21.94
2019-05-30T13:52:43.889Z,22.04
2019-05-30T13:55:12.103Z,22.11
2019-05-30T13:57:39.209Z,22.24
2019-05-30T14:00:06.264Z,22.26
2019-05-30T14:02:33.669Z,22.25
2019-05-30T14:05:02.134Z,22.32
2019-05-30T14:07:29.333Z,22.12
2019-05-30T14:09:56.654Z,21.64
2019-05-30T14:12:23.690Z,21.42
2019-05-30T14:14:50.748Z,21.33
2019-05-30T14:17:17.777Z,21.32
2019-05-30T14:19:45.148Z,21.31
2019-05-30T14:22:12.521Z,21.33
2019-05-30T14:24:39.553Z,21.23
2019-05-30T14:27:07.614Z,21.21
2019-05-30T14:29:34.817Z,21.28
2019-05-30T14:32:03.808Z,21.36
2019-05-30T14:34:30.894Z,21.54
2019-05-30T14:36:57.921Z,21.72
2019-05-30T14:39:24.959Z,21.75
2019-05-30T14:41:52.004Z,21.62
2019-05-30T14:44:20.343Z,21.66
2019-05-30T14:46:47.692Z,21.93
2019-05-30T14:49:14.750Z,22.05
2019-05-30T14:51:41.774Z,21.85
2019-05-30T14:54:08.921Z,21.74
2019-05-30T14:56:35.935Z,21.65
2019-05-30T14:59:02.969Z,21.74
2019-05-30T15:01:30.020Z,21.83
2019-05-30T15:03:57.054Z,21.88
2019-05-30T15:06:24.117Z,21.75
2019-05-30T15:08:51.149Z,21.55
2019-05-30T15:11:18.211Z,21.51
2019-05-30T15:13:45.236Z,21.58
2019-05-30T15:16:13.057Z,21.55
2019-05-30T15:18:40.194Z,21.54
2019-05-30T15:21:08.222Z,21.46
2019-05-30T15:23:35.315Z,21.41
2019-05-30T15:26:02.717Z,21.39
2019-05-30T15:28:29.749Z,21.36
2019-05-30T15:30:56.781Z,21.37
2019-05-30T15:33:24.163Z,21.43
2019-05-30T15:35:51.519Z,21.45
2019-05-30T15:38:18.636Z,21.51
2019-05-30T15:40:45.682Z,21.56
2019-05-30T15:43:13.454Z,21.65
2019-05-30T15:45:40.512Z,21.75
2019-05-30T15:48:08.275Z,21.65
2019-05-30T15:50:35.481Z,21.68
2019-05-30T15:53:02.555Z,21.72
2019-05-30T15:55:29.572Z,21.85
2019-05-30T15:57:56.626Z,21.82
2019-05-30T16:00:23.661Z,21.77
2019-05-30T16:02:50.728Z,21.63
2019-05-30T16:05:18.690Z,21.60
2019-05-30T16:07:45.790Z,21.62
2019-05-30T16:10:12.975Z,21.64
2019-05-30T16:12:40.415Z,21.65
2019-05-30T16:15:07.592Z,21.68
2019-05-30T16:17:34.632Z,21.67
2019-05-30T16:20:01.667Z,21.63
2019-05-30T16:22:30.087Z,21.57
2019-05-30T16:24:57.878Z,21.51
2019-05-30T16:27:26.096Z,21.39
2019-05-30T16:29:53.433Z,21.37
2019-05-30T16:32:20.487Z,21.33
2019-05-30T16:34:47.521Z,21.30
2019-05-30T16:40:05.189Z,21.14
2019-05-30T16:42:23.768Z,20.98
2019-05-30T16:44:50.875Z,20.87
2019-05-30T16:47:18.420Z,20.73
2019-05-30T16:49:45.452Z,20.65
2019-05-30T16:52:12.843Z,20.55
2019-05-30T16:54:39.929Z,20.48
2019-05-30T16:57:06.966Z,20.43
2019-05-30T16:59:34.012Z,20.44
2019-05-30T17:02:01.347Z,20.42
2019-05-30T17:04:28.392Z,20.39
2019-05-30T17:06:55.425Z,20.31
2019-05-30T17:09:23.493Z,20.20
2019-05-30T17:11:50.965Z,20.09
2019-05-30T17:14:18.012Z,20.03
2019-05-30T17:16:45.050Z,19.94
2019-05-30T17:19:12.536Z,19.91
2019-05-30T17:21:39.604Z,19.87
2019-05-30T17:24:06.621Z,19.81
2019-05-30T17:26:34.731Z,19.79
2019-05-30T17:29:01.784Z,19.74
2019-05-30T17:31:28.845Z,19.74
2019-05-30T17:33:55.977Z,19.76
2019-05-30T17:36:24.197Z,19.70
2019-05-30T17:38:51.312Z,19.65
2019-05-30T17:41:18.728Z,19.63
2019-05-30T17:43:45.744Z,19.63
2019-05-30T17:46:12.781Z,19.63
2019-05-30T17:48:39.833Z,19.58
2019-05-30T17:51:06.864Z,19.54
2019-05-30T17:53:33.915Z,19.47
2019-05-30T17:56:00.950Z,19.42
2019-05-30T17:58:28.358Z,19.36
2019-05-30T18:00:57.266Z,19.26
2019-05-30T18:03:24.552Z,19.15
2019-05-30T18:05:51.585Z,19.04
2019-05-30T18:08:18.637Z,18.93
2019-05-30T18:10:53.781Z,18.83
2019-05-30T18:13:14.409Z,18.75
2019-05-30T18:15:41.793Z,18.69
2019-05-30T18:18:09.150Z,18.65
2019-05-30T18:20:47.733Z,18.60
2019-05-30T18:23:05.288Z,18.54
2019-05-30T18:25:32.336Z,18.45
2019-05-30T18:27:59.375Z,18.40
2019-05-30T18:30:26.420Z,18.35
2019-05-30T18:32:53.454Z,18.29
2019-05-30T18:35:20.503Z,18.25
2019-05-30T18:37:47.531Z,18.18
2019-05-30T18:40:14.931Z,18.14
2019-05-30T18:42:42.019Z,18.11
2019-05-30T18:45:09.445Z,18.09
2019-05-30T18:47:36.478Z,18.03
2019-05-30T18:50:03.519Z,17.97
2019-05-30T18:52:30.564Z,17.89
2019-05-30T18:54:57.614Z,17.80
2019-05-30T18:57:24.653Z,17.71
2019-05-30T18:59:52.028Z,17.64
2019-05-30T19:02:19.065Z,17.59
2019-05-30T19:04:46.437Z,17.54
2019-05-30T19:07:13.470Z,17.47
2019-05-30T19:09:40.590Z,17.40
2019-05-30T19:12:07.552Z,17.36
2019-05-30T19:14:37.121Z,17.33
2019-05-30T19:17:03.628Z,17.29
2019-05-30T19:19:31.872Z,17.25
2019-05-30T19:21:58.859Z,17.19
2019-05-30T19:24:26.060Z,17.14
2019-05-30T19:26:53.120Z,17.10
2019-05-30T19:29:20.195Z,17.07
2019-05-30T19:31:47.228Z,17.03
2019-05-30T19:34:14.507Z,16.98
2019-05-30T19:36:41.560Z,16.95
2019-05-30T19:39:08.593Z,16.91
2019-05-30T19:41:52.629Z,16.87
2019-05-30T19:44:04.373Z,16.84
2019-05-30T19:46:32.275Z,16.81
2019-05-30T19:48:59.372Z,16.76
2019-05-30T19:51:26.694Z,16.73
2019-05-30T19:53:54.054Z,16.70
2019-05-30T19:56:21.101Z,16.67
2019-05-30T19:58:48.143Z,16.65
2019-05-30T20:01:15.198Z,16.64
2019-05-30T20:03:46.713Z,16.64
2019-05-30T20:06:11.337Z,16.64
2019-05-30T20:08:51.319Z,16.63
2019-05-30T20:11:07.481Z,16.60
2019-05-30T20:13:35.043Z,16.58
2019-05-30T20:16:02.218Z,16.54
2019-05-30T20:18:29.253Z,16.51
2019-05-30T20:20:57.913Z,16.48
2019-05-30T20:23:25.033Z,16.46
2019-05-30T20:25:52.086Z,16.42
2019-05-30T20:28:19.129Z,16.38
2019-05-30T20:30:46.525Z,16.36
2019-05-30T20:33:13.571Z,16.34
2019-05-30T20:35:41.748Z,16.33
2019-05-30T20:38:09.720Z,16.32
2019-05-30T20:40:36.954Z,16.29
2019-05-30T20:43:04.079Z,16.26
2019-05-30T20:45:31.113Z,16.25
2019-05-30T20:47:58.157Z,16.23
2019-05-30T20:50:25.200Z,16.21
2019-05-30T20:52:52.236Z,16.21
2019-05-30T20:55:19.838Z,16.20
2019-05-30T20:57:47.042Z,16.20
2019-05-30T21:00:14.078Z,16.21
2019-05-30T21:02:41.298Z,16.20
2019-05-30T21:05:08.584Z,16.21
2019-05-30T21:07:35.991Z,16.21
2019-05-30T21:10:02.971Z,16.20
2019-05-30T21:12:37.741Z,16.20
2019-05-30T21:14:59.086Z,16.21
2019-05-30T21:17:26.136Z,16.21
2019-05-30T21:19:53.164Z,16.19
2019-05-30T21:22:20.469Z,16.17
2019-05-30T21:24:47.825Z,16.16
2019-05-30T21:27:14.877Z,16.16
2019-05-30T21:29:43.085Z,16.16
2019-05-30T21:32:10.608Z,16.15
2019-05-30T21:34:37.987Z,16.14
2019-05-30T21:37:05.548Z,16.13
2019-05-30T21:39:32.569Z,16.12
2019-05-30T21:41:59.623Z,16.11
2019-05-30T21:44:26.659Z,16.10
2019-05-30T21:46:53.788Z,16.08
2019-05-30T21:49:20.810Z,16.06
2019-05-30T21:51:47.861Z,16.05
2019-05-30T21:54:14.897Z,16.04
2019-05-30T21:56:41.994Z,16.04
2019-05-30T21:59:08.986Z,16.01
2019-05-30T22:01:36.022Z,16.01
2019-05-30T22:04:03.316Z,15.99
2019-05-30T22:06:30.420Z,15.98
2019-05-30T22:08:57.477Z,15.97
2019-05-30T22:11:24.510Z,15.94
2019-05-30T22:13:52.071Z,15.93
2019-05-30T22:16:19.064Z,15.92
2019-05-30T22:18:46.115Z,15.91
2019-05-30T22:21:13.148Z,15.91
2019-05-30T22:23:40.561Z,15.88
2019-05-30T22:26:07.591Z,15.86
2019-05-30T22:28:34.645Z,15.85
2019-05-30T22:31:01.679Z,15.85
2019-05-30T22:33:28.973Z,15.84
2019-05-30T22:35:56.004Z,15.83
2019-05-30T22:38:23.362Z,15.81
2019-05-30T22:40:50.397Z,15.78
2019-05-30T22:43:25.172Z,15.77
2019-05-30T22:45:48.186Z,15.77
2019-05-30T22:48:15.245Z,15.76
2019-05-30T22:50:42.289Z,15.76
2019-05-30T22:53:09.336Z,15.74
2019-05-30T22:55:36.375Z,15.71
2019-05-30T22:58:03.424Z,15.70
2019-05-30T23:00:30.458Z,15.70
2019-05-30T23:02:57.497Z,15.69
2019-05-30T23:05:24.793Z,15.67
2019-05-30T23:07:51.831Z,15.63
2019-05-30T23:10:18.877Z,15.61
2019-05-30T23:12:46.231Z,15.59
2019-05-30T23:15:13.275Z,15.56
2019-05-30T23:17:40.314Z,15.55
2019-05-30T23:20:07.362Z,15.54
2019-05-30T23:22:34.397Z,15.54
2019-05-30T23:25:01.473Z,15.54
2019-05-30T23:27:28.485Z,15.52
2019-05-30T23:29:55.952Z,15.52
2019-05-30T23:32:23.143Z,15.51
2019-05-30T23:34:50.227Z,15.49
2019-05-30T23:37:17.225Z,15.49
2019-05-30T23:39:44.410Z,15.48
2019-05-30T23:42:11.453Z,15.47
2019-05-30T23:44:38.499Z,15.44
2019-05-30T23:47:05.855Z,15.42
2019-05-30T23:49:32.869Z,15.40
2019-05-30T23:52:00.427Z,15.38
2019-05-30T23:54:28.710Z,15.37
2019-05-30T23:56:56.490Z,15.35
2019-05-30T23:59:24.553Z,15.33
